createdAt,value
2018-03-04T00:01:39.723Z,24.97
2018-03-04T00:04:06.777Z,25.80
2018-03-04T00:06:33.105Z,24.03
2018-03-04T00:09:00.131Z,26.20
2018-03-04T00:11:26.461Z,26.27
2018-03-04T00:13:52.823Z,25.50
2018-03-04T00:16:19.142Z,25.30
2018-03-04T00:18:46.184Z,24.67
2018-03-04T00:21:13.228Z,24.23
2018-03-04T00:23:40.276Z,25.80
2018-03-04T00:26:07.332Z,25.40
2018-03-04T00:28:33.639Z,25.03
2018-03-04T00:30:59.900Z,27.57
2018-03-04T00:33:26.931Z,25.90
2018-03-04T00:35:54.013Z,24.70
2018-03-04T00:38:20.311Z,24.57
2018-03-04T00:40:46.616Z,23.33
2018-03-04T00:43:12.915Z,26.97
2018-03-04T00:45:39.207Z,25.07
2018-03-04T00:48:06.233Z,26.23
2018-03-04T00:50:33.950Z,23.90
2018-03-04T00:53:00.208Z,27.13
2018-03-04T00:55:26.472Z,26.10
2018-03-04T00:57:53.527Z,24.87
2018-03-04T01:00:19.839Z,25.40
2018-03-04T01:02:46.100Z,24.93
2018-03-04T01:05:12.412Z,25.27
2018-03-04T01:07:39.466Z,25.07
2018-03-04T01:10:05.744Z,27.20
2018-03-04T01:12:32.041Z,27.07
2018-03-04T01:14:58.332Z,25.17
2018-03-04T01:17:24.592Z,26.13
2018-03-04T01:19:51.639Z,25.47
2018-03-04T01:22:18.656Z,27.53
2018-03-04T01:24:44.936Z,25.63
2018-03-04T01:27:11.233Z,26.00
2018-03-04T01:29:38.241Z,26.93
2018-03-04T01:32:04.493Z,24.10
2018-03-04T01:34:30.793Z,27.10
2018-03-04T01:36:57.061Z,25.30
2018-03-04T01:39:23.337Z,25.70
2018-03-04T01:41:49.600Z,24.00
2018-03-04T01:44:16.752Z,25.03
2018-03-04T01:46:43.011Z,25.13
2018-03-04T01:49:09.286Z,25.83
2018-03-04T01:51:50.934Z,25.20
2018-03-04T01:54:27.916Z,25.07
2018-03-04T01:56:55.017Z,26.30
2018-03-04T01:59:21.329Z,25.93
2018-03-04T02:01:47.682Z,24.90
2018-03-04T02:04:13.978Z,25.70
2018-03-04T02:06:40.269Z,25.43
2018-03-04T02:09:06.557Z,25.27
2018-03-04T02:11:32.896Z,24.83
2018-03-04T02:14:00.137Z,25.80
2018-03-04T02:16:26.378Z,25.90
2018-03-04T02:18:52.694Z,25.70
2018-03-04T02:21:18.947Z,27.40
2018-03-04T02:23:45.232Z,24.27
2018-03-04T02:26:12.266Z,25.50
2018-03-04T02:28:39.293Z,26.93
2018-03-04T02:31:05.602Z,25.57
2018-03-04T02:33:31.919Z,25.40
2018-03-04T02:35:58.293Z,24.87
2018-03-04T02:38:24.580Z,25.90
2018-03-04T02:40:50.885Z,25.13
2018-03-04T02:43:17.141Z,23.63
2018-03-04T02:45:43.438Z,22.60
2018-03-04T02:48:10.426Z,23.90
2018-03-04T02:50:36.692Z,25.03
2018-03-04T02:53:02.957Z,25.47
2018-03-04T02:55:29.249Z,26.73
2018-03-04T02:57:55.574Z,25.27
2018-03-04T03:00:21.892Z,23.57
2018-03-04T03:02:48.188Z,26.80
2018-03-04T03:05:14.528Z,25.07
2018-03-04T03:07:40.859Z,22.90
2018-03-04T03:10:07.216Z,24.20
2018-03-04T03:12:33.551Z,25.30
2018-03-04T03:14:59.829Z,25.43
2018-03-04T03:17:26.128Z,24.67
2018-03-04T03:19:52.415Z,24.93
2018-03-04T03:22:18.722Z,24.97
2018-03-04T03:24:45.038Z,25.40
2018-03-04T03:27:12.112Z,26.83
2018-03-04T03:29:38.419Z,22.33
2018-03-04T03:32:05.984Z,24.17
2018-03-04T03:34:33.011Z,24.83
2018-03-04T03:39:44.311Z,24.37
2018-03-04T03:42:10.613Z,23.40
2018-03-04T03:44:38.026Z,24.23
2018-03-04T03:47:04.310Z,26.33
2018-03-04T03:49:30.584Z,26.47
2018-03-04T03:51:57.655Z,27.80
2018-03-04T03:54:23.929Z,25.87
2018-03-04T03:56:50.202Z,25.03
2018-03-04T03:59:16.485Z,25.77
2018-03-04T04:01:42.744Z,23.03
2018-03-04T04:04:09.800Z,23.80
2018-03-04T04:06:36.831Z,26.77
2018-03-04T04:09:03.861Z,25.17
2018-03-04T04:11:30.143Z,24.30
2018-03-04T04:13:56.449Z,25.70
2018-03-04T04:16:23.451Z,25.50
2018-03-04T04:18:49.823Z,23.93
2018-03-04T04:21:16.923Z,23.67
2018-03-04T04:27:18.580Z,27.43
2018-03-04T04:29:44.837Z,27.00
2018-03-04T04:32:12.131Z,27.10
2018-03-04T04:34:39.969Z,24.77
2018-03-04T04:37:06.265Z,26.57
2018-03-04T04:39:32.561Z,26.13
2018-03-04T04:41:59.623Z,25.50
2018-03-04T04:44:26.656Z,26.10
2018-03-04T04:46:53.694Z,24.70
2018-03-04T04:49:20.004Z,26.27
2018-03-04T04:51:46.261Z,24.60
2018-03-04T04:54:13.317Z,25.33
2018-03-04T04:56:40.324Z,24.90
2018-03-04T04:59:06.678Z,26.80
2018-03-04T05:01:33.009Z,23.80
2018-03-04T05:04:00.772Z,25.97
2018-03-04T05:06:27.065Z,27.17
2018-03-04T05:08:53.389Z,25.30
2018-03-04T05:11:19.710Z,27.60
2018-03-04T05:13:45.977Z,25.93
2018-03-04T05:16:13.255Z,26.73
2018-03-04T05:18:39.612Z,25.27
2018-03-04T05:21:05.881Z,26.97
2018-03-04T05:23:32.161Z,25.17
2018-03-04T05:25:59.201Z,24.40
2018-03-04T05:28:26.247Z,26.50
2018-03-04T05:30:52.614Z,27.67
2018-03-04T05:33:18.887Z,27.20
2018-03-04T05:35:45.266Z,26.10
2018-03-04T05:38:11.550Z,25.27
2018-03-04T05:40:37.818Z,24.93
2018-03-04T05:43:04.852Z,27.43
2018-03-04T05:45:31.914Z,27.43
2018-03-04T05:47:58.970Z,25.77
2018-03-04T05:50:25.286Z,27.43
2018-03-04T05:52:52.352Z,28.13
2018-03-04T05:55:18.667Z,27.70
2018-03-04T05:57:44.954Z,28.07
2018-03-04T06:00:11.282Z,26.17
2018-03-04T06:02:37.625Z,26.97
2018-03-04T06:05:03.914Z,26.50
2018-03-04T06:07:30.553Z,27.33
2018-03-04T06:09:58.816Z,27.40
2018-03-04T06:12:25.119Z,26.43
2018-03-04T06:14:51.420Z,28.07
2018-03-04T06:17:17.731Z,29.40
2018-03-04T06:19:44.060Z,27.10
2018-03-04T06:22:10.375Z,30.03
2018-03-04T06:24:36.716Z,26.07
2018-03-04T06:27:03.155Z,27.17
2018-03-04T06:29:29.428Z,23.40
2018-03-04T06:31:55.713Z,26.17
2018-03-04T06:34:22.034Z,28.07
2018-03-04T06:36:48.318Z,25.50
2018-03-04T06:39:14.818Z,27.13
2018-03-04T06:41:42.168Z,27.67
2018-03-04T06:44:08.437Z,28.47
2018-03-04T06:46:34.718Z,27.30
2018-03-04T06:49:01.152Z,27.43
2018-03-04T06:51:27.608Z,27.43
2018-03-04T06:53:53.878Z,27.47
2018-03-04T06:56:20.174Z,28.63
2018-03-04T06:58:46.518Z,28.03
2018-03-04T07:01:12.834Z,28.30
2018-03-04T07:03:39.214Z,27.97
2018-03-04T07:06:06.288Z,26.77
2018-03-04T07:08:32.649Z,28.50
2018-03-04T07:10:58.973Z,27.47
2018-03-04T07:13:25.221Z,26.03
2018-03-04T07:15:51.531Z,27.30
2018-03-04T07:18:18.717Z,27.87
2018-03-04T07:20:45.088Z,27.50
2018-03-04T07:23:11.377Z,28.93
2018-03-04T07:25:37.681Z,27.47
2018-03-04T07:28:03.981Z,30.37
2018-03-04T07:30:30.310Z,27.23
2018-03-04T07:32:56.578Z,27.10
2018-03-04T07:35:22.853Z,28.70
2018-03-04T07:37:49.849Z,27.63
2018-03-04T07:40:16.136Z,28.73
2018-03-04T07:42:42.500Z,28.30
2018-03-04T07:45:08.903Z,29.30
2018-03-04T07:47:35.994Z,30.33
2018-03-04T07:50:02.473Z,29.00
2018-03-04T07:52:29.525Z,31.43
2018-03-04T07:54:56.535Z,31.93
2018-03-04T07:57:22.794Z,30.70
2018-03-04T07:59:49.816Z,30.20
2018-03-04T08:02:16.117Z,30.47
2018-03-04T08:04:42.429Z,28.83
2018-03-04T08:07:08.697Z,31.70
2018-03-04T08:09:34.950Z,31.07
2018-03-04T08:12:01.267Z,31.03
2018-03-04T08:14:27.549Z,29.93
2018-03-04T08:16:53.848Z,27.27
2018-03-04T08:19:20.145Z,30.17
2018-03-04T08:21:46.460Z,28.27
2018-03-04T08:24:12.723Z,30.67
2018-03-04T08:26:57.740Z,31.60
2018-03-04T08:29:24.044Z,30.53
2018-03-04T08:31:51.068Z,32.60
2018-03-04T08:34:17.359Z,31.10
2018-03-04T08:36:43.721Z,33.20
2018-03-04T08:39:10.060Z,32.50
2018-03-04T08:41:36.451Z,34.30
2018-03-04T08:44:09.854Z,32.70
2018-03-04T08:46:36.134Z,34.37
2018-03-04T08:49:02.396Z,32.67
2018-03-04T08:51:28.654Z,32.57
2018-03-04T08:53:54.920Z,33.37
2018-03-04T08:56:21.501Z,34.10
2018-03-04T08:58:47.854Z,34.37
2018-03-04T09:01:14.837Z,34.20
2018-03-04T09:03:41.837Z,33.87
2018-03-04T09:06:08.155Z,34.43
2018-03-04T09:08:34.413Z,33.10
2018-03-04T09:11:00.718Z,33.33
2018-03-04T09:13:26.948Z,34.23
2018-03-04T09:15:53.277Z,31.70
2018-03-04T09:18:19.537Z,33.90
2018-03-04T09:20:45.853Z,37.10
2018-03-04T09:23:12.149Z,36.70
2018-03-04T09:25:39.162Z,36.80
2018-03-04T09:28:05.577Z,36.30
2018-03-04T09:30:31.874Z,37.33
2018-03-04T09:32:58.139Z,36.57
2018-03-04T09:35:24.546Z,37.43
2018-03-04T09:37:50.883Z,36.47
2018-03-04T09:40:17.225Z,39.07
2018-03-04T09:42:43.810Z,38.00
2018-03-04T09:45:10.136Z,37.17
2018-03-04T09:47:36.399Z,38.33
2018-03-04T09:50:02.731Z,37.47
2018-03-04T09:52:28.997Z,39.83
2018-03-04T09:54:55.324Z,38.80
2018-03-04T09:57:21.620Z,39.30
2018-03-04T09:59:47.918Z,39.43
2018-03-04T10:02:14.384Z,40.20
2018-03-04T10:04:47.712Z,40.50
2018-03-04T10:07:14.382Z,40.87
2018-03-04T10:09:41.392Z,38.20
2018-03-04T10:12:07.965Z,38.00
2018-03-04T10:14:35.051Z,35.73
2018-03-04T10:17:01.380Z,36.63
2018-03-04T10:19:27.658Z,34.57
2018-03-04T10:21:53.930Z,35.90
2018-03-04T10:24:20.953Z,35.93
2018-03-04T10:26:47.263Z,34.47
2018-03-04T10:29:13.615Z,35.87
2018-03-04T10:31:41.401Z,34.07
2018-03-04T10:34:08.748Z,35.50
2018-03-04T10:36:36.111Z,33.43
2018-03-04T10:39:03.220Z,35.03
2018-03-04T10:41:37.600Z,33.27
2018-03-04T10:44:03.953Z,33.97
2018-03-04T10:46:30.247Z,36.83
2018-03-04T10:48:57.257Z,34.63
2018-03-04T10:51:23.603Z,34.20
2018-03-04T10:53:49.908Z,34.10
2018-03-04T10:56:16.231Z,34.37
2018-03-04T10:58:42.595Z,32.83
2018-03-04T11:01:10.941Z,33.37
2018-03-04T11:03:37.360Z,34.80
2018-03-04T11:06:03.672Z,32.97
2018-03-04T11:08:30.671Z,34.60
2018-03-04T11:10:59.867Z,33.27
2018-03-04T11:13:26.204Z,30.70
2018-03-04T11:15:52.565Z,30.17
2018-03-04T11:18:19.626Z,32.60
2018-03-04T11:20:46.000Z,32.17
2018-03-04T11:23:12.519Z,28.77
2018-03-04T11:25:38.833Z,31.90
2018-03-04T11:28:05.191Z,32.30
2018-03-04T11:30:31.492Z,33.73
2018-03-04T11:32:58.062Z,35.83
2018-03-04T11:35:25.517Z,33.17
2018-03-04T11:37:51.895Z,32.23
2018-03-04T11:40:19.006Z,31.40
2018-03-04T11:42:45.352Z,28.73
2018-03-04T11:45:11.734Z,31.70
2018-03-04T11:47:38.096Z,29.30
2018-03-04T11:50:04.517Z,30.30
2018-03-04T11:52:30.826Z,30.80
2018-03-04T11:54:57.166Z,30.80
2018-03-04T11:57:23.496Z,34.00
2018-03-04T11:59:49.860Z,31.30
2018-03-04T12:02:16.162Z,33.27
2018-03-04T12:04:42.496Z,34.10
2018-03-04T12:07:08.943Z,31.03
2018-03-04T12:09:36.373Z,31.93
2018-03-04T12:12:02.806Z,34.80
2018-03-04T12:14:31.213Z,33.73
2018-03-04T12:16:57.535Z,34.33
2018-03-04T12:19:23.895Z,34.53
2018-03-04T12:21:50.310Z,35.90
2018-03-04T12:24:16.614Z,34.17
2018-03-04T12:26:42.954Z,33.10
2018-03-04T12:29:09.280Z,34.80
2018-03-04T12:31:35.632Z,35.50
2018-03-04T12:34:01.961Z,34.13
2018-03-04T12:36:28.296Z,33.93
2018-03-04T12:38:54.582Z,32.97
2018-03-04T12:41:21.656Z,31.63
2018-03-04T12:43:48.029Z,37.40
2018-03-04T12:46:15.192Z,33.40
2018-03-04T12:48:41.564Z,37.23
2018-03-04T12:51:07.981Z,35.40
2018-03-04T12:53:35.058Z,32.03
2018-03-04T12:56:03.477Z,34.10
2018-03-04T12:58:29.863Z,35.07
2018-03-04T13:00:56.229Z,34.37
2018-03-04T13:03:22.713Z,34.30
2018-03-04T13:05:51.850Z,34.47
2018-03-04T13:08:22.564Z,34.90
2018-03-04T13:10:52.912Z,33.30
2018-03-04T13:13:20.283Z,32.43
2018-03-04T13:15:46.740Z,35.23
2018-03-04T13:18:13.926Z,38.97
2018-03-04T13:20:40.319Z,35.20
2018-03-04T13:23:06.717Z,34.30
2018-03-04T13:25:33.034Z,37.37
2018-03-04T13:27:59.431Z,37.20
2018-03-04T13:30:27.506Z,33.67
2018-03-04T13:32:53.919Z,36.00
2018-03-04T13:35:20.302Z,37.13
2018-03-04T13:37:47.660Z,36.03
2018-03-04T13:40:14.027Z,35.07
2018-03-04T13:42:40.483Z,34.83
2018-03-04T13:45:07.593Z,35.80
2018-03-04T13:47:33.908Z,35.77
2018-03-04T13:50:00.205Z,36.97
2018-03-04T13:52:27.427Z,39.60
2018-03-04T13:54:53.736Z,42.30
2018-03-04T13:57:20.081Z,38.37
2018-03-04T13:59:46.361Z,38.50
2018-03-04T14:02:13.408Z,38.07
2018-03-04T14:04:40.563Z,37.30
2018-03-04T14:07:07.955Z,34.00
2018-03-04T14:09:34.328Z,38.57
2018-03-04T14:12:00.817Z,38.23
2018-03-04T14:14:27.153Z,37.50
2018-03-04T14:16:53.596Z,39.37
2018-03-04T14:19:20.922Z,39.13
2018-03-04T14:21:49.520Z,38.73
2018-03-04T14:24:15.872Z,40.70
2018-03-04T14:26:42.280Z,39.90
2018-03-04T14:29:09.657Z,42.97
2018-03-04T14:31:36.039Z,42.50
2018-03-04T14:34:03.152Z,42.30
2018-03-04T14:36:29.542Z,44.07
2018-03-04T14:38:55.916Z,42.87
2018-03-04T14:41:22.332Z,44.30
2018-03-04T14:43:48.592Z,42.80
2018-03-04T14:46:14.954Z,41.60
2018-03-04T14:48:41.308Z,39.60
2018-03-04T14:51:07.728Z,41.20
2018-03-04T14:53:34.125Z,41.10
2018-03-04T14:56:01.507Z,40.17
2018-03-04T14:58:28.955Z,41.50
2018-03-04T15:00:56.033Z,38.53
2018-03-04T15:03:23.352Z,39.27
2018-03-04T15:05:54.488Z,41.87
2018-03-04T15:08:21.794Z,40.30
2018-03-04T15:10:48.208Z,40.67
2018-03-04T15:13:14.553Z,39.07
2018-03-04T15:15:40.909Z,41.30
2018-03-04T15:18:12.679Z,42.90
2018-03-04T15:20:39.128Z,40.70
2018-03-04T15:23:05.505Z,41.13
2018-03-04T15:25:32.894Z,40.63
2018-03-04T15:27:59.186Z,42.00
2018-03-04T15:30:25.604Z,40.70
2018-03-04T15:32:52.686Z,41.07
2018-03-04T15:35:19.061Z,42.40
2018-03-04T15:37:45.446Z,42.20
2018-03-04T15:40:11.846Z,43.63
2018-03-04T15:42:38.927Z,39.40
2018-03-04T15:45:05.264Z,39.43
2018-03-04T15:47:31.583Z,39.83
2018-03-04T15:49:57.940Z,38.37
2018-03-04T15:52:24.285Z,38.50
2018-03-04T15:54:50.700Z,38.03
2018-03-04T15:57:17.015Z,36.40
2018-03-04T15:59:43.375Z,36.40
2018-03-04T16:02:10.425Z,36.50
2018-03-04T16:04:36.753Z,37.20
2018-03-04T16:07:03.130Z,36.50
2018-03-04T16:09:31.264Z,35.93
2018-03-04T16:11:57.593Z,35.60
2018-03-04T16:14:24.817Z,36.93
2018-03-04T16:16:51.162Z,34.23
2018-03-04T16:19:17.532Z,37.20
2018-03-04T16:21:45.206Z,37.30
2018-03-04T16:24:13.685Z,34.30
2018-03-04T16:26:41.022Z,33.20
2018-03-04T16:29:08.369Z,32.37
2018-03-04T16:31:35.661Z,31.80
2018-03-04T16:34:02.750Z,33.57
2018-03-04T16:36:29.063Z,31.90
2018-03-04T16:38:55.433Z,32.57
2018-03-04T16:41:21.823Z,35.50
2018-03-04T16:43:48.292Z,34.60
2018-03-04T16:46:15.673Z,33.63
2018-03-04T16:48:42.775Z,34.50
2018-03-04T16:51:09.112Z,35.43
2018-03-04T16:53:35.434Z,34.60
2018-03-04T16:56:01.747Z,33.87
2018-03-04T16:58:29.185Z,36.40
2018-03-04T17:00:55.471Z,33.47
2018-03-04T17:03:21.817Z,34.17
2018-03-04T17:05:48.194Z,34.57
2018-03-04T17:08:25.996Z,34.90
2018-03-04T17:10:52.325Z,31.43
2018-03-04T17:13:20.445Z,31.57
2018-03-04T17:15:46.775Z,32.57
2018-03-04T17:18:13.105Z,33.90
2018-03-04T17:20:40.241Z,34.00
2018-03-04T17:23:06.601Z,32.57
2018-03-04T17:25:32.998Z,32.90
2018-03-04T17:27:59.372Z,32.70
2018-03-04T17:30:26.496Z,33.73
2018-03-04T17:32:52.816Z,32.77
2018-03-04T17:35:19.147Z,32.77
2018-03-04T17:37:45.482Z,32.30
2018-03-04T17:40:12.802Z,32.47
2018-03-04T17:42:39.917Z,32.97
2018-03-04T17:45:06.332Z,34.63
2018-03-04T17:47:32.635Z,31.10
2018-03-04T17:49:58.971Z,31.93
2018-03-04T17:52:25.316Z,32.70
2018-03-04T17:54:51.870Z,34.63
2018-03-04T17:57:18.596Z,34.53
2018-03-04T17:59:44.884Z,33.43
2018-03-04T18:02:11.929Z,33.83
2018-03-04T18:04:39.803Z,31.53
2018-03-04T18:07:07.999Z,32.83
2018-03-04T18:09:34.328Z,33.10
2018-03-04T18:12:00.696Z,30.90
2018-03-04T18:14:26.982Z,33.10
2018-03-04T18:16:53.318Z,32.90
2018-03-04T18:19:19.638Z,32.23
2018-03-04T18:21:46.725Z,32.77
2018-03-04T18:24:13.080Z,33.70
2018-03-04T18:26:40.187Z,30.47
2018-03-04T18:29:06.613Z,30.90
2018-03-04T18:31:32.998Z,31.60
2018-03-04T18:33:59.387Z,29.90
2018-03-04T18:36:25.725Z,32.07
2018-03-04T18:38:52.121Z,31.70
2018-03-04T18:41:19.199Z,31.87
2018-03-04T18:43:45.603Z,32.10
2018-03-04T18:46:12.048Z,32.40
2018-03-04T18:48:40.144Z,31.80
2018-03-04T18:51:07.331Z,31.83
2018-03-04T18:53:34.654Z,32.10
2018-03-04T18:56:01.010Z,31.80
2018-03-04T18:58:28.146Z,30.07
2018-03-04T19:00:54.532Z,30.20
2018-03-04T19:03:21.642Z,29.90
2018-03-04T19:05:48.060Z,31.67
2018-03-04T19:08:14.378Z,36.50
2018-03-04T19:10:40.707Z,30.40
2018-03-04T19:13:07.041Z,28.10
2018-03-04T19:15:33.396Z,30.83
2018-03-04T19:17:59.677Z,32.30
2018-03-04T19:20:26.051Z,30.83
2018-03-04T19:22:52.753Z,29.40
2018-03-04T19:25:19.120Z,28.47
2018-03-04T19:27:45.506Z,31.00
2018-03-04T19:30:12.590Z,28.67
2018-03-04T19:32:38.977Z,28.70
2018-03-04T19:35:06.142Z,27.73
2018-03-04T19:37:32.545Z,29.93
2018-03-04T19:39:58.930Z,30.17
2018-03-04T19:42:25.316Z,27.50
2018-03-04T19:44:51.754Z,27.90
2018-03-04T19:47:18.163Z,29.50
2018-03-04T19:49:44.649Z,27.27
2018-03-04T19:52:11.062Z,30.10
2018-03-04T19:54:38.169Z,27.50
2018-03-04T19:57:04.721Z,29.90
2018-03-04T19:59:31.052Z,28.80
2018-03-04T20:01:57.365Z,27.97
2018-03-04T20:04:23.726Z,27.80
2018-03-04T20:06:50.231Z,25.67
2018-03-04T20:09:16.664Z,28.20
2018-03-04T20:11:42.994Z,30.80
2018-03-04T20:14:10.136Z,28.43
2018-03-04T20:16:36.440Z,27.37
2018-03-04T20:19:03.520Z,27.37
2018-03-04T20:21:30.908Z,27.43
2018-03-04T20:24:04.275Z,26.50
2018-03-04T20:26:30.635Z,27.73
2018-03-04T20:28:56.889Z,27.03
2018-03-04T20:31:23.228Z,28.30
2018-03-04T20:33:49.610Z,27.97
2018-03-04T20:36:15.983Z,26.77
2018-03-04T20:38:43.042Z,28.57
2018-03-04T20:41:10.071Z,29.73
2018-03-04T20:43:36.364Z,30.00
2018-03-04T20:46:02.662Z,25.60
2018-03-04T20:48:28.934Z,27.13
2018-03-04T20:50:55.244Z,26.17
2018-03-04T20:53:21.550Z,34.77
2018-03-04T20:55:48.628Z,28.00
2018-03-04T20:58:15.031Z,29.53
2018-03-04T21:00:41.306Z,27.20
2018-03-04T21:03:07.673Z,28.53
2018-03-04T21:05:34.689Z,27.60
2018-03-04T21:08:05.901Z,26.17
2018-03-04T21:10:32.199Z,28.50
2018-03-04T21:13:07.750Z,28.63
2018-03-04T21:15:34.793Z,27.53
2018-03-04T21:18:01.782Z,26.47
2018-03-04T21:20:28.051Z,29.30
2018-03-04T21:23:01.218Z,27.70
2018-03-04T21:25:27.642Z,26.97
2018-03-04T21:27:53.924Z,27.67
2018-03-04T21:30:21.043Z,27.30
2018-03-04T21:32:47.358Z,27.70
2018-03-04T21:35:13.695Z,27.07
2018-03-04T21:37:39.942Z,27.80
2018-03-04T21:40:06.249Z,27.57
2018-03-04T21:42:32.538Z,30.07
2018-03-04T21:44:58.813Z,27.87
2018-03-04T21:47:25.186Z,28.80
2018-03-04T21:49:51.483Z,28.30
2018-03-04T21:52:17.777Z,30.10
2018-03-04T21:54:44.027Z,25.33
2018-03-04T21:57:10.415Z,29.33
2018-03-04T21:59:37.490Z,31.00
2018-03-04T22:02:03.788Z,28.70
2018-03-04T22:04:30.069Z,28.67
2018-03-04T22:06:56.338Z,30.10
2018-03-04T22:09:22.651Z,29.20
2018-03-04T22:11:48.936Z,30.33
2018-03-04T22:14:15.233Z,28.40
2018-03-04T22:16:42.222Z,29.27
2018-03-04T22:19:08.476Z,28.23
2018-03-04T22:21:34.728Z,28.23
2018-03-04T22:24:00.997Z,26.90
2018-03-04T22:26:27.302Z,28.40
2018-03-04T22:28:53.531Z,28.03
2018-03-04T22:31:19.809Z,28.67
2018-03-04T22:33:46.065Z,29.43
2018-03-04T22:36:12.329Z,27.90
2018-03-04T22:38:39.369Z,28.80
2018-03-04T22:41:05.649Z,30.77
2018-03-04T22:43:31.957Z,28.63
2018-03-04T22:45:58.245Z,31.10
2018-03-04T22:48:24.496Z,29.77
2018-03-04T22:50:51.500Z,31.00
2018-03-04T22:53:17.751Z,31.73
2018-03-04T22:55:44.043Z,31.03
2018-03-04T22:58:10.309Z,30.83
2018-03-04T23:00:36.583Z,29.97
2018-03-04T23:03:02.931Z,31.77
2018-03-04T23:05:29.199Z,31.00
2018-03-04T23:07:55.513Z,32.30
2018-03-04T23:10:21.790Z,33.77
2018-03-04T23:12:48.805Z,33.97
2018-03-04T23:15:15.096Z,34.57
2018-03-04T23:17:41.397Z,33.00
2018-03-04T23:20:08.444Z,35.87
2018-03-04T23:22:35.462Z,33.67
2018-03-04T23:25:01.760Z,35.70
2018-03-04T23:27:28.073Z,34.13
2018-03-04T23:29:54.334Z,35.50
2018-03-04T23:32:20.616Z,35.13
2018-03-04T23:34:47.584Z,35.77
2018-03-04T23:37:13.883Z,35.53
2018-03-04T23:39:40.990Z,38.40
2018-03-04T23:42:07.287Z,36.97
2018-03-04T23:44:33.527Z,39.70
2018-03-04T23:46:59.792Z,36.33
2018-03-04T23:49:26.023Z,37.57
2018-03-04T23:51:53.227Z,39.90
2018-03-04T23:54:19.467Z,38.47
2018-03-04T23:56:45.715Z,40.23
2018-03-04T23:59:12.003Z,40.80
